createdAt,value
2017-03-28T00:06:51.513Z,14
2017-03-28T00:16:51.590Z,15
2017-03-28T00:26:51.873Z,13
2017-03-28T00:36:51.616Z,10
2017-03-28T00:46:51.601Z,10
2017-03-28T00:56:51.639Z,11
2017-03-28T01:06:51.604Z,13
2017-03-28T01:16:51.543Z,11
2017-03-28T01:26:51.605Z,14
2017-03-28T01:36:51.577Z,11
2017-03-28T01:46:51.638Z,10
2017-03-28T01:56:51.583Z,12
2017-03-28T02:06:51.710Z,9
2017-03-28T02:16:52.833Z,12
2017-03-28T02:26:51.714Z,12
2017-03-28T02:36:51.662Z,9
2017-03-28T02:46:51.721Z,10
2017-03-28T02:56:51.692Z,10
2017-03-28T03:06:51.675Z,8
2017-03-28T03:16:51.989Z,10
2017-03-28T03:26:51.997Z,8
2017-03-28T03:36:51.753Z,7
2017-03-28T03:46:51.685Z,7
2017-03-28T03:56:51.733Z,7
2017-03-28T04:06:51.716Z,7
2017-03-28T04:16:51.768Z,9
2017-03-28T04:26:51.719Z,10
2017-03-28T04:36:51.804Z,7
2017-03-28T04:46:51.749Z,9
2017-03-28T04:56:51.713Z,9
2017-03-28T05:06:51.779Z,7
2017-03-28T05:16:51.730Z,7
2017-03-28T05:26:51.810Z,7
2017-03-28T05:36:51.802Z,7
2017-03-28T05:46:51.823Z,10
2017-03-28T05:56:51.813Z,8
2017-03-28T06:06:51.868Z,9
2017-03-28T06:16:51.829Z,8
2017-03-28T06:26:51.862Z,7
2017-03-28T06:36:51.848Z,9
2017-03-28T06:46:51.910Z,11
2017-03-28T06:56:51.903Z,8
2017-03-28T07:06:51.951Z,7
2017-03-28T07:16:51.922Z,12
2017-03-28T07:26:51.856Z,9
2017-03-28T07:36:51.946Z,11
2017-03-28T07:46:51.895Z,9
2017-03-28T07:56:52.029Z,10
2017-03-28T08:06:51.967Z,11
2017-03-28T08:16:51.877Z,11
2017-03-28T08:26:51.919Z,14
2017-03-28T08:36:51.895Z,13
2017-03-28T08:46:51.927Z,14
2017-03-28T08:56:51.908Z,12
2017-03-28T09:06:51.929Z,16
2017-03-28T09:16:51.935Z,15
2017-03-28T09:26:51.961Z,14
2017-03-28T09:36:51.930Z,13
2017-03-28T09:46:51.956Z,16
2017-03-28T09:56:51.967Z,16
2017-03-28T10:06:52.036Z,17
2017-03-28T10:16:51.982Z,18
2017-03-28T10:26:52.002Z,17
2017-03-28T10:36:52.014Z,19
2017-03-28T10:46:52.040Z,16
2017-03-28T10:56:52.027Z,20
2017-03-28T11:06:52.081Z,18
2017-03-28T11:16:52.068Z,21
2017-03-28T11:26:52.094Z,21
2017-03-28T11:36:52.079Z,20
2017-03-28T11:46:52.082Z,23
2017-03-28T11:56:52.110Z,18
2017-03-28T12:06:52.086Z,17
2017-03-28T12:16:52.142Z,20
2017-03-28T12:26:52.115Z,19
2017-03-28T12:36:52.108Z,20
2017-03-28T12:46:52.161Z,18
2017-03-28T12:56:52.123Z,20
2017-03-28T13:06:52.113Z,21
2017-03-28T13:16:52.142Z,20
2017-03-28T13:26:52.140Z,16
2017-03-28T13:36:52.117Z,20
2017-03-28T13:46:52.109Z,19
2017-03-28T13:56:52.123Z,21
2017-03-28T14:06:52.109Z,21
2017-03-28T14:16:52.157Z,18
2017-03-28T14:26:52.237Z,21
2017-03-28T14:36:52.235Z,22
2017-03-28T14:46:52.155Z,22
2017-03-28T14:56:52.181Z,23
2017-03-28T15:06:52.221Z,24
2017-03-28T15:16:52.125Z,24
2017-03-28T15:26:52.169Z,25
2017-03-28T15:46:52.245Z,25
2017-03-28T15:56:53.035Z,25
2017-03-28T16:06:52.168Z,26
2017-03-28T16:16:52.217Z,29
2017-03-28T16:26:52.223Z,31
2017-03-28T16:36:52.223Z,28
2017-03-28T16:46:52.204Z,31
2017-03-28T16:56:52.168Z,30
2017-03-28T17:06:52.756Z,28
2017-03-28T17:16:53.138Z,34
2017-03-28T17:26:53.298Z,31
2017-03-28T17:36:52.329Z,33
2017-03-28T17:46:52.212Z,32
2017-03-28T17:56:52.889Z,31
2017-03-28T18:06:52.214Z,31
2017-03-28T18:16:52.430Z,38
2017-03-28T18:26:53.952Z,35
2017-03-28T18:36:52.805Z,34
2017-03-28T18:46:53.818Z,45
2017-03-28T18:56:53.749Z,41
2017-03-28T19:06:53.440Z,51
2017-03-28T19:16:55.843Z,55
2017-03-28T19:27:03.916Z,43
2017-03-28T19:37:01.208Z,44
2017-03-28T19:46:53.453Z,39
2017-03-28T19:56:53.699Z,35
2017-03-28T20:06:53.796Z,38
2017-03-28T20:16:53.217Z,42
2017-03-28T20:26:52.631Z,41
2017-03-28T20:36:52.809Z,40
2017-03-28T20:46:52.330Z,39
2017-03-28T20:56:52.499Z,38
2017-03-28T21:06:55.913Z,46
2017-03-28T21:16:56.205Z,39
2017-03-28T21:26:53.269Z,40
2017-03-28T21:36:52.371Z,45
2017-03-28T21:46:52.214Z,42
2017-03-28T21:56:52.354Z,39
2017-03-28T22:06:52.309Z,43
2017-03-28T22:16:52.259Z,32
2017-03-28T22:26:52.322Z,33
2017-03-28T22:36:52.229Z,37
2017-03-28T22:46:52.304Z,30
2017-03-28T22:56:52.245Z,32
2017-03-28T23:06:52.171Z,31
2017-03-28T23:16:52.216Z,31
2017-03-28T23:26:52.184Z,23
2017-03-28T23:36:52.294Z,27
2017-03-28T23:46:52.224Z,29
2017-03-28T23:56:52.217Z,29
